createdAt,value
2022-11-28T00:00:24.000Z,0
2022-11-28T00:01:40.000Z,0
2022-11-28T00:02:55.000Z,0
2022-11-28T00:04:11.000Z,0
2022-11-28T00:05:27.000Z,0
2022-11-28T00:06:44.000Z,0
2022-11-28T00:08:00.000Z,0
2022-11-28T00:09:16.000Z,0
2022-11-28T00:10:32.000Z,0
2022-11-28T00:11:48.000Z,0
2022-11-28T00:13:04.000Z,0
2022-11-28T00:14:20.000Z,0
2022-11-28T00:15:37.000Z,0
2022-11-28T00:16:53.000Z,0
2022-11-28T00:18:09.614Z,0
2022-11-28T00:19:24.788Z,0
2022-11-28T00:20:40.000Z,0
2022-11-28T00:21:56.000Z,0
2022-11-28T00:23:12.000Z,0
2022-11-28T00:24:29.000Z,0
2022-11-28T00:25:45.000Z,0
2022-11-28T00:27:01.000Z,0
2022-11-28T00:28:17.000Z,0
2022-11-28T00:29:33.000Z,0
2022-11-28T00:30:49.000Z,0
2022-11-28T00:32:06.000Z,0
2022-11-28T00:33:22.000Z,0
2022-11-28T00:34:38.000Z,0
2022-11-28T00:35:53.000Z,0
2022-11-28T00:37:09.000Z,0
2022-11-28T00:38:25.000Z,0
2022-11-28T00:39:42.159Z,0
2022-11-28T00:40:58.000Z,0
2022-11-28T00:42:14.436Z,0
2022-11-28T00:43:30.000Z,0
2022-11-28T00:44:46.000Z,0
2022-11-28T00:46:02.871Z,0
2022-11-28T00:47:18.000Z,0
2022-11-28T00:48:34.000Z,0
2022-11-28T00:49:51.000Z,0
2022-11-28T00:51:07.000Z,0
2022-11-28T00:52:22.000Z,0
2022-11-28T00:53:38.000Z,0
2022-11-28T00:54:54.000Z,0
2022-11-28T00:56:10.000Z,0
2022-11-28T00:57:27.227Z,0
2022-11-28T00:58:43.000Z,0
2022-11-28T00:59:59.553Z,0
2022-11-28T01:01:15.000Z,0
2022-11-28T01:02:31.000Z,0
2022-11-28T01:03:47.000Z,0
2022-11-28T01:05:04.088Z,0
2022-11-28T01:06:20.000Z,0
2022-11-28T01:07:36.000Z,0
2022-11-28T01:08:51.000Z,0
2022-11-28T01:10:07.000Z,0
2022-11-28T01:11:23.000Z,0
2022-11-28T01:12:39.000Z,0
2022-11-28T01:13:55.000Z,0
2022-11-28T01:15:12.000Z,0
2022-11-28T01:16:28.000Z,0
2022-11-28T01:17:44.000Z,0
2022-11-28T01:19:00.724Z,0
2022-11-28T01:20:16.000Z,0
2022-11-28T01:21:32.000Z,0
2022-11-28T01:22:48.000Z,0
2022-11-28T01:24:05.000Z,0
2022-11-28T01:25:20.000Z,0
2022-11-28T01:26:36.000Z,0
2022-11-28T01:27:52.000Z,0
2022-11-28T01:29:08.000Z,0
2022-11-28T01:30:25.072Z,0
2022-11-28T01:31:40.000Z,0
2022-11-28T01:32:57.000Z,0
2022-11-28T01:34:13.000Z,0
2022-11-28T01:35:29.000Z,0
2022-11-28T01:36:45.000Z,0
2022-11-28T01:38:01.000Z,0
2022-11-28T01:39:17.000Z,0
2022-11-28T01:40:34.000Z,0
2022-11-28T01:41:49.402Z,0
2022-11-28T01:43:05.000Z,0
2022-11-28T01:44:21.000Z,0
2022-11-28T01:45:37.000Z,0
2022-11-28T01:46:53.000Z,0
2022-11-28T01:48:09.000Z,0
2022-11-28T01:49:26.000Z,0
2022-11-28T01:50:42.000Z,0
2022-11-28T01:51:58.000Z,0
2022-11-28T01:53:14.000Z,0
2022-11-28T01:54:30.863Z,0
2022-11-28T01:55:46.000Z,0
2022-11-28T01:57:03.157Z,0
2022-11-28T01:58:18.000Z,0
2022-11-28T01:59:34.000Z,0
2022-11-28T02:00:50.000Z,0
2022-11-28T02:02:06.000Z,0
2022-11-28T02:03:22.000Z,0
2022-11-28T02:04:38.000Z,0
2022-11-28T02:05:54.000Z,0
2022-11-28T02:07:11.000Z,0
2022-11-28T02:08:27.000Z,0
2022-11-28T02:09:43.000Z,0
2022-11-28T02:10:59.000Z,0
2022-11-28T02:12:15.000Z,0
2022-11-28T02:13:31.000Z,0
2022-11-28T02:14:47.000Z,0
2022-11-28T02:16:03.000Z,0
2022-11-28T02:17:19.000Z,0
2022-11-28T02:18:35.000Z,0
2022-11-28T02:19:51.835Z,0
2022-11-28T02:21:07.000Z,0
2022-11-28T02:22:23.000Z,0
2022-11-28T02:23:40.000Z,0
2022-11-28T02:24:56.000Z,0
2022-11-28T02:26:12.000Z,0
2022-11-28T02:27:28.713Z,0
2022-11-28T02:28:44.000Z,0
2022-11-28T02:30:00.000Z,0
2022-11-28T02:31:15.000Z,0
2022-11-28T02:32:32.000Z,0
2022-11-28T02:33:48.460Z,0
2022-11-28T02:35:04.000Z,0
2022-11-28T02:36:20.000Z,0
2022-11-28T02:37:36.000Z,0
2022-11-28T02:38:52.000Z,0
2022-11-28T02:40:09.333Z,0
2022-11-28T02:41:25.343Z,0
2022-11-28T02:42:41.497Z,0
2022-11-28T02:43:57.000Z,0
2022-11-28T02:45:13.784Z,0
2022-11-28T02:46:29.000Z,0
2022-11-28T02:47:44.000Z,0
2022-11-28T02:49:01.000Z,0
2022-11-28T02:50:17.385Z,0
2022-11-28T02:51:33.000Z,0
2022-11-28T02:52:49.000Z,0
2022-11-28T02:54:05.000Z,0
2022-11-28T02:55:20.000Z,0
2022-11-28T02:56:36.000Z,0
2022-11-28T02:57:53.000Z,0
2022-11-28T02:59:09.000Z,0
2022-11-28T03:00:25.586Z,0
2022-11-28T03:01:41.000Z,0
2022-11-28T03:02:57.000Z,0
2022-11-28T03:04:13.000Z,0
2022-11-28T03:05:29.000Z,0
2022-11-28T03:06:46.000Z,0
2022-11-28T03:08:02.000Z,0
2022-11-28T03:09:18.000Z,0
2022-11-28T03:10:34.000Z,0
2022-11-28T03:11:49.000Z,0
2022-11-28T03:13:05.000Z,0
2022-11-28T03:14:21.000Z,0
2022-11-28T03:15:38.365Z,0
2022-11-28T03:16:54.000Z,0
2022-11-28T03:18:10.000Z,0
2022-11-28T03:19:26.000Z,0
2022-11-28T03:20:42.000Z,0
2022-11-28T03:21:59.110Z,0
2022-11-28T03:23:15.000Z,0
2022-11-28T03:24:31.000Z,0
2022-11-28T03:25:47.000Z,0
2022-11-28T03:27:03.700Z,0
2022-11-28T03:28:18.000Z,0
2022-11-28T03:29:34.000Z,0
2022-11-28T03:30:50.000Z,0
2022-11-28T03:32:07.000Z,0
2022-11-28T03:33:23.000Z,0
2022-11-28T03:34:39.000Z,0
2022-11-28T03:35:55.000Z,0
2022-11-28T03:37:11.000Z,0
2022-11-28T03:38:27.000Z,0
2022-11-28T03:39:43.000Z,0
2022-11-28T03:41:00.000Z,0
2022-11-28T03:42:16.000Z,0
2022-11-28T03:43:32.000Z,0
2022-11-28T03:44:47.000Z,0
2022-11-28T03:46:03.000Z,0
2022-11-28T03:47:20.040Z,0
2022-11-28T03:48:35.000Z,0
2022-11-28T03:49:52.000Z,0
2022-11-28T03:51:08.000Z,0
2022-11-28T03:52:24.000Z,0
2022-11-28T03:53:40.773Z,0
2022-11-28T03:54:56.000Z,0
2022-11-28T03:56:12.000Z,0
2022-11-28T03:57:28.000Z,0
2022-11-28T03:58:45.000Z,0
2022-11-28T04:00:01.000Z,0
2022-11-28T04:01:16.659Z,0
2022-11-28T04:02:32.000Z,0
2022-11-28T04:03:48.000Z,0
2022-11-28T04:05:04.000Z,0
2022-11-28T04:06:21.235Z,0
2022-11-28T04:07:37.000Z,0
2022-11-28T04:08:53.000Z,0
2022-11-28T04:10:09.000Z,0
2022-11-28T04:11:25.000Z,0
2022-11-28T04:12:41.000Z,0
2022-11-28T04:13:58.110Z,0
2022-11-28T04:15:14.000Z,0
2022-11-28T04:16:30.000Z,0
2022-11-28T04:17:45.000Z,0
2022-11-28T04:19:01.000Z,0
2022-11-28T04:20:17.000Z,0
2022-11-28T04:21:33.000Z,0
2022-11-28T04:22:50.141Z,0
2022-11-28T04:24:06.000Z,0
2022-11-28T04:25:22.000Z,0
2022-11-28T04:26:38.000Z,0
2022-11-28T04:27:54.000Z,0
2022-11-28T04:29:10.000Z,0
2022-11-28T04:30:26.000Z,0
2022-11-28T04:31:42.000Z,0
2022-11-28T04:32:59.000Z,0
2022-11-28T04:34:14.000Z,0
2022-11-28T04:35:30.000Z,0
2022-11-28T04:36:46.761Z,0
2022-11-28T04:38:02.000Z,0
2022-11-28T04:39:18.000Z,0
2022-11-28T04:40:34.000Z,0
2022-11-28T04:41:51.339Z,0
2022-11-28T04:43:07.000Z,0
2022-11-28T04:44:23.000Z,0
2022-11-28T04:45:39.000Z,0
2022-11-28T04:46:55.000Z,0
2022-11-28T04:48:11.000Z,0
2022-11-28T04:49:27.000Z,0
2022-11-28T04:50:43.000Z,0
2022-11-28T04:51:59.530Z,0
2022-11-28T04:53:15.659Z,0
2022-11-28T04:54:31.000Z,0
2022-11-28T04:55:47.000Z,0
2022-11-28T04:57:03.000Z,0
2022-11-28T04:58:20.000Z,0
2022-11-28T04:59:36.000Z,0
2022-11-28T05:00:52.000Z,0
2022-11-28T05:02:08.000Z,0
2022-11-28T05:03:24.000Z,0
2022-11-28T05:04:40.000Z,0
2022-11-28T05:05:57.364Z,0
2022-11-28T05:07:12.000Z,0
2022-11-28T05:08:28.433Z,0
2022-11-28T05:09:44.568Z,0
2022-11-28T05:11:00.000Z,0
2022-11-28T05:12:16.000Z,0
2022-11-28T05:13:32.000Z,0
2022-11-28T05:14:48.000Z,0
2022-11-28T05:16:05.000Z,0
2022-11-28T05:17:21.436Z,0
2022-11-28T05:18:37.000Z,0
2022-11-28T05:19:53.000Z,0
2022-11-28T05:21:09.000Z,0
2022-11-28T05:22:25.000Z,0
2022-11-28T05:23:40.000Z,0
2022-11-28T05:24:57.000Z,0
2022-11-28T05:26:13.000Z,0
2022-11-28T05:27:29.000Z,0
2022-11-28T05:28:45.000Z,0
2022-11-28T05:30:01.000Z,0
2022-11-28T05:31:17.000Z,0
2022-11-28T05:32:34.206Z,0
2022-11-28T05:33:50.344Z,0
2022-11-28T05:35:06.000Z,0
2022-11-28T05:36:22.000Z,0
2022-11-28T05:37:38.787Z,0
2022-11-28T05:38:54.000Z,0
2022-11-28T05:40:10.099Z,0
2022-11-28T05:41:26.238Z,0
2022-11-28T05:42:42.000Z,0
2022-11-28T05:43:58.000Z,0
2022-11-28T05:45:14.000Z,0
2022-11-28T05:46:30.822Z,0
2022-11-28T05:47:46.982Z,0
2022-11-28T05:49:02.000Z,0
2022-11-28T05:50:19.000Z,0
2022-11-28T05:51:35.000Z,0
2022-11-28T05:52:51.000Z,0
2022-11-28T05:54:07.000Z,0
2022-11-28T05:55:23.000Z,0
2022-11-28T05:56:38.000Z,0
2022-11-28T05:57:54.000Z,0
2022-11-28T05:59:11.000Z,0
2022-11-28T06:00:27.000Z,0
2022-11-28T06:01:43.000Z,0
2022-11-28T06:02:59.000Z,0
2022-11-28T06:04:15.872Z,0
2022-11-28T06:05:32.028Z,0
2022-11-28T06:06:47.000Z,0
2022-11-28T06:08:04.306Z,0
2022-11-28T06:09:20.000Z,0
2022-11-28T06:10:36.601Z,0
2022-11-28T06:11:52.000Z,0
2022-11-28T06:13:07.000Z,0
2022-11-28T06:14:24.052Z,0
2022-11-28T06:15:39.000Z,0
2022-11-28T06:16:56.000Z,0
2022-11-28T06:18:12.000Z,0
2022-11-28T06:19:28.000Z,0
2022-11-28T06:20:44.000Z,0
2022-11-28T06:22:00.000Z,0
2022-11-28T06:23:16.000Z,0
2022-11-28T06:24:33.209Z,0
2022-11-28T06:25:49.000Z,0
2022-11-28T06:27:05.000Z,0
2022-11-28T06:28:21.651Z,0
2022-11-28T06:29:36.000Z,0
2022-11-28T06:30:52.000Z,0
2022-11-28T06:32:08.000Z,0
2022-11-28T06:33:25.244Z,0
2022-11-28T06:34:41.400Z,0
2022-11-28T06:35:57.000Z,0
2022-11-28T06:37:13.000Z,0
2022-11-28T06:38:29.000Z,0
2022-11-28T06:39:45.000Z,0
2022-11-28T06:41:01.000Z,0
2022-11-28T06:42:18.000Z,0
2022-11-28T06:43:34.421Z,0
2022-11-28T06:44:50.000Z,0
2022-11-28T06:46:05.000Z,0
2022-11-28T06:47:21.000Z,0
2022-11-28T06:48:37.000Z,0
2022-11-28T06:49:54.152Z,0
2022-11-28T06:51:10.000Z,0
2022-11-28T06:52:26.000Z,0
2022-11-28T06:53:42.000Z,0
2022-11-28T06:54:58.000Z,0
2022-11-28T06:56:14.000Z,0
2022-11-28T06:57:31.030Z,0
2022-11-28T06:58:46.000Z,0
2022-11-28T07:00:03.000Z,0
2022-11-28T07:01:19.000Z,0
2022-11-28T07:02:34.000Z,0
2022-11-28T07:03:50.000Z,0
2022-11-28T07:05:06.000Z,0
2022-11-28T07:06:22.000Z,0
2022-11-28T07:07:39.205Z,0
2022-11-28T07:08:55.000Z,0
2022-11-28T07:10:10.000Z,0
2022-11-28T07:11:26.000Z,0
2022-11-28T07:12:42.000Z,0
2022-11-28T07:13:58.000Z,0
2022-11-28T07:15:14.000Z,0
2022-11-28T07:16:31.000Z,0
2022-11-28T07:17:47.392Z,0
2022-11-28T07:19:03.000Z,0
2022-11-28T07:20:19.000Z,0
2022-11-28T07:21:35.000Z,0
2022-11-28T07:22:51.000Z,0
2022-11-28T07:24:07.000Z,0
2022-11-28T07:25:24.285Z,0
2022-11-28T07:26:39.000Z,0
2022-11-28T07:27:55.585Z,0
2022-11-28T07:29:11.000Z,0
2022-11-28T07:30:27.859Z,0
2022-11-28T07:31:43.000Z,0
2022-11-28T07:32:59.000Z,0
2022-11-28T07:34:16.000Z,0
2022-11-28T07:35:32.000Z,0
2022-11-28T07:36:48.000Z,0
2022-11-28T07:38:04.000Z,5
2022-11-28T07:39:20.000Z,5
2022-11-28T07:40:36.000Z,5
2022-11-28T07:41:52.000Z,5
2022-11-28T07:43:08.000Z,5
2022-11-28T07:44:24.000Z,5
2022-11-28T07:45:40.000Z,5
2022-11-28T07:46:56.000Z,5
2022-11-28T07:48:12.000Z,5
2022-11-28T07:49:28.000Z,5
2022-11-28T07:50:44.000Z,5
2022-11-28T07:52:01.353Z,5
2022-11-28T07:53:17.000Z,5
2022-11-28T07:54:33.641Z,5
2022-11-28T07:55:49.000Z,5
2022-11-28T07:57:05.000Z,5
2022-11-28T07:58:22.093Z,5
2022-11-28T07:59:37.000Z,5
2022-11-28T08:00:53.000Z,5
2022-11-28T08:02:09.000Z,5
2022-11-28T08:03:25.000Z,5
2022-11-28T08:04:41.000Z,11
2022-11-28T08:05:57.000Z,11
2022-11-28T08:07:13.000Z,11
2022-11-28T08:08:30.000Z,11
2022-11-28T08:09:46.000Z,11
2022-11-28T08:11:02.000Z,11
2022-11-28T08:12:18.000Z,11
2022-11-28T08:13:34.000Z,11
2022-11-28T08:14:50.000Z,11
2022-11-28T08:16:05.000Z,11
2022-11-28T08:17:22.000Z,11
2022-11-28T08:18:38.000Z,11
2022-11-28T08:19:54.582Z,11
2022-11-28T08:21:10.000Z,11
2022-11-28T08:22:26.000Z,11
2022-11-28T08:23:42.000Z,11
2022-11-28T08:24:58.000Z,11
2022-11-28T08:26:15.000Z,11
2022-11-28T08:27:31.000Z,11
2022-11-28T08:28:47.000Z,11
2022-11-28T08:30:03.000Z,11
2022-11-28T08:31:19.000Z,11
2022-11-28T08:32:34.000Z,11
2022-11-28T08:33:50.000Z,11
2022-11-28T08:35:07.000Z,11
2022-11-28T08:36:23.000Z,11
2022-11-28T08:37:39.000Z,11
2022-11-28T08:38:55.000Z,11
2022-11-28T08:40:11.000Z,11
2022-11-28T08:41:27.000Z,11
2022-11-28T08:42:44.216Z,11
2022-11-28T08:44:00.000Z,11
2022-11-28T08:45:16.000Z,11
2022-11-28T08:46:32.000Z,11
2022-11-28T08:47:48.000Z,16
2022-11-28T08:49:03.000Z,11
2022-11-28T08:50:19.000Z,11
2022-11-28T08:51:36.252Z,11
2022-11-28T08:52:52.396Z,11
2022-11-28T08:54:08.000Z,11
2022-11-28T08:55:24.000Z,11
2022-11-28T08:56:40.000Z,16
2022-11-28T08:57:56.000Z,16
2022-11-28T08:59:12.000Z,16
2022-11-28T09:00:29.000Z,16
2022-11-28T09:01:45.000Z,16
2022-11-28T09:03:01.000Z,16
2022-11-28T09:04:17.000Z,22
2022-11-28T09:05:32.000Z,22
2022-11-28T09:06:49.015Z,22
2022-11-28T09:08:04.000Z,22
2022-11-28T09:09:21.000Z,22
2022-11-28T09:10:37.000Z,28
2022-11-28T09:11:53.000Z,28
2022-11-28T09:13:09.744Z,28
2022-11-28T09:14:25.000Z,28
2022-11-28T09:15:42.051Z,28
2022-11-28T09:16:57.000Z,28
2022-11-28T09:18:14.000Z,22
2022-11-28T09:19:30.000Z,22
2022-11-28T09:20:46.000Z,22
2022-11-28T09:22:01.788Z,22
2022-11-28T09:23:17.000Z,22
2022-11-28T09:24:33.000Z,22
2022-11-28T09:25:49.000Z,22
2022-11-28T09:27:06.362Z,22
2022-11-28T09:28:22.000Z,22
2022-11-28T09:29:38.000Z,22
2022-11-28T09:30:54.000Z,22
2022-11-28T09:32:10.000Z,22
2022-11-28T09:33:26.000Z,22
2022-11-28T09:34:43.234Z,22
2022-11-28T09:35:59.000Z,28
2022-11-28T09:37:15.000Z,28
2022-11-28T09:38:30.000Z,33
2022-11-28T09:39:46.000Z,33
2022-11-28T09:41:02.000Z,33
2022-11-28T09:42:19.123Z,39
2022-11-28T09:43:35.000Z,39
2022-11-28T09:44:51.000Z,39
2022-11-28T09:46:07.000Z,39
2022-11-28T09:47:23.000Z,39
2022-11-28T09:48:39.000Z,33
2022-11-28T09:49:55.000Z,33
2022-11-28T09:51:12.143Z,33
2022-11-28T09:52:28.000Z,39
2022-11-28T09:53:44.000Z,33
2022-11-28T09:54:59.000Z,33
2022-11-28T09:56:15.000Z,33
2022-11-28T09:57:31.000Z,33
2022-11-28T09:58:48.031Z,33
2022-11-28T10:00:03.000Z,33
2022-11-28T10:01:20.000Z,33
2022-11-28T10:02:36.000Z,33
2022-11-28T10:03:52.000Z,33
2022-11-28T10:05:08.000Z,28
2022-11-28T10:06:24.903Z,33
2022-11-28T10:07:40.000Z,33
2022-11-28T10:08:56.000Z,33
2022-11-28T10:10:13.000Z,33
2022-11-28T10:11:28.000Z,33
2022-11-28T10:12:44.000Z,33
2022-11-28T10:14:00.797Z,28
2022-11-28T10:15:16.000Z,28
2022-11-28T10:16:32.000Z,22
2022-11-28T10:17:49.000Z,22
2022-11-28T10:19:05.000Z,22
2022-11-28T10:20:21.524Z,22
2022-11-28T10:21:37.000Z,22
2022-11-28T10:22:53.822Z,22
2022-11-28T10:24:09.000Z,28
2022-11-28T10:25:25.000Z,28
2022-11-28T10:26:42.254Z,33
2022-11-28T10:27:57.000Z,28
2022-11-28T10:29:13.000Z,33
2022-11-28T10:30:29.000Z,33
2022-11-28T10:31:45.000Z,28
2022-11-28T10:33:01.998Z,28
2022-11-28T10:34:17.000Z,22
2022-11-28T10:35:34.000Z,22
2022-11-28T10:36:50.000Z,16
2022-11-28T10:38:06.000Z,16
2022-11-28T10:39:22.000Z,16
2022-11-28T10:40:38.000Z,11
2022-11-28T10:41:54.000Z,11
2022-11-28T10:43:10.000Z,11
2022-11-28T10:44:26.000Z,11
2022-11-28T10:45:42.000Z,11
2022-11-28T10:46:58.000Z,11
2022-11-28T10:48:14.000Z,11
2022-11-28T10:49:30.000Z,11
2022-11-28T10:50:47.077Z,11
2022-11-28T10:52:02.000Z,11
2022-11-28T10:53:19.000Z,11
2022-11-28T10:54:35.495Z,11
2022-11-28T10:55:51.000Z,11
2022-11-28T10:57:07.000Z,11
2022-11-28T10:58:23.932Z,11
2022-11-28T10:59:39.000Z,11
2022-11-28T11:00:55.000Z,11
2022-11-28T11:02:11.000Z,11
2022-11-28T11:03:27.000Z,11
2022-11-28T11:04:43.671Z,11
2022-11-28T11:05:59.000Z,11
2022-11-28T11:07:15.000Z,11
2022-11-28T11:08:31.000Z,11
2022-11-28T11:09:48.000Z,16
2022-11-28T11:11:04.000Z,16
2022-11-28T11:12:20.000Z,16
2022-11-28T11:13:36.000Z,16
2022-11-28T11:14:52.000Z,16
2022-11-28T11:16:08.000Z,22
2022-11-28T11:17:23.000Z,16
2022-11-28T11:18:40.000Z,16
2022-11-28T11:19:56.000Z,16
2022-11-28T11:21:12.000Z,16
2022-11-28T11:22:28.000Z,16
2022-11-28T11:23:44.000Z,16
2022-11-28T11:24:59.000Z,16
2022-11-28T11:26:15.000Z,11
2022-11-28T11:27:32.000Z,16
2022-11-28T11:28:48.480Z,16
2022-11-28T11:30:04.000Z,16
2022-11-28T11:31:20.765Z,16
2022-11-28T11:32:36.914Z,16
2022-11-28T11:33:53.062Z,16
2022-11-28T11:35:08.000Z,16
2022-11-28T11:36:25.353Z,16
2022-11-28T11:37:41.000Z,16
2022-11-28T11:38:57.657Z,11
2022-11-28T11:40:13.000Z,11
2022-11-28T11:41:28.000Z,16
2022-11-28T11:42:44.000Z,11
2022-11-28T11:44:01.000Z,16
2022-11-28T11:45:17.000Z,16
2022-11-28T11:46:33.530Z,16
2022-11-28T11:47:49.675Z,16
2022-11-28T11:49:05.000Z,16
2022-11-28T11:50:21.000Z,16
2022-11-28T11:51:37.000Z,16
2022-11-28T11:52:54.000Z,22
2022-11-28T11:54:10.000Z,22
2022-11-28T11:55:26.000Z,22
2022-11-28T11:56:42.000Z,22
2022-11-28T11:57:57.000Z,22
2022-11-28T11:59:13.000Z,22
2022-11-28T12:00:29.000Z,22
2022-11-28T12:01:46.294Z,22
2022-11-28T12:03:02.000Z,22
2022-11-28T12:04:18.000Z,22
2022-11-28T12:05:34.000Z,22
2022-11-28T12:06:50.000Z,16
2022-11-28T12:08:06.000Z,16
2022-11-28T12:09:22.000Z,16
2022-11-28T12:10:39.331Z,16
2022-11-28T12:11:55.000Z,16
2022-11-28T12:13:11.000Z,16
2022-11-28T12:14:26.770Z,16
2022-11-28T12:15:42.000Z,16
2022-11-28T12:16:58.000Z,16
2022-11-28T12:18:15.202Z,16
2022-11-28T12:19:31.355Z,16
2022-11-28T12:20:47.496Z,16
2022-11-28T12:22:03.653Z,16
2022-11-28T12:23:19.000Z,22
2022-11-28T12:24:35.000Z,22
2022-11-28T12:25:52.070Z,22
2022-11-28T12:27:07.000Z,22
2022-11-28T12:28:24.000Z,22
2022-11-28T12:29:40.522Z,22
2022-11-28T12:30:55.000Z,22
2022-11-28T12:32:11.000Z,22
2022-11-28T12:33:27.000Z,22
2022-11-28T12:34:43.000Z,22
2022-11-28T12:36:00.000Z,22
2022-11-28T12:37:16.000Z,22
2022-11-28T12:38:32.000Z,22
2022-11-28T12:39:48.000Z,22
2022-11-28T12:41:04.838Z,22
2022-11-28T12:42:20.978Z,22
2022-11-28T12:43:36.000Z,22
2022-11-28T12:44:53.000Z,22
2022-11-28T12:46:09.000Z,22
2022-11-28T12:47:24.000Z,22
2022-11-28T12:48:40.000Z,22
2022-11-28T12:49:56.000Z,22
2022-11-28T12:51:12.000Z,22
2022-11-28T12:52:28.000Z,22
2022-11-28T12:53:45.000Z,16
2022-11-28T12:55:01.000Z,16
2022-11-28T12:56:17.000Z,16
2022-11-28T12:57:33.000Z,16
2022-11-28T12:58:49.000Z,16
2022-11-28T13:00:05.000Z,16
2022-11-28T13:01:21.000Z,16
2022-11-28T13:02:38.000Z,22
2022-11-28T13:03:53.000Z,22
2022-11-28T13:05:09.000Z,22
2022-11-28T13:06:25.778Z,22
2022-11-28T13:07:41.000Z,22
2022-11-28T13:08:57.000Z,16
2022-11-28T13:10:13.000Z,16
2022-11-28T13:11:30.000Z,16
2022-11-28T13:12:46.000Z,16
2022-11-28T13:14:02.000Z,16
2022-11-28T13:15:18.000Z,16
2022-11-28T13:16:34.000Z,16
2022-11-28T13:17:50.000Z,16
2022-11-28T13:19:07.000Z,16
2022-11-28T13:20:22.000Z,16
2022-11-28T13:21:38.000Z,16
2022-11-28T13:22:54.000Z,16
2022-11-28T13:24:10.849Z,16
2022-11-28T13:25:26.996Z,16
2022-11-28T13:26:42.000Z,16
2022-11-28T13:27:59.000Z,16
2022-11-28T13:29:15.000Z,16
2022-11-28T13:30:31.000Z,16
2022-11-28T13:31:47.000Z,16
2022-11-28T13:33:03.000Z,16
2022-11-28T13:34:19.000Z,16
2022-11-28T13:35:35.000Z,16
2022-11-28T13:36:51.000Z,16
2022-11-28T13:38:07.000Z,11
2022-11-28T13:39:23.000Z,11
2022-11-28T13:40:39.000Z,16
2022-11-28T13:41:55.000Z,11
2022-11-28T13:43:11.000Z,11
2022-11-28T13:44:28.205Z,11
2022-11-28T13:45:44.000Z,11
2022-11-28T13:47:00.000Z,11
2022-11-28T13:48:16.654Z,11
2022-11-28T13:49:32.000Z,11
2022-11-28T13:50:48.000Z,11
2022-11-28T13:52:04.000Z,11
2022-11-28T13:53:20.000Z,11
2022-11-28T13:54:36.000Z,11
2022-11-28T13:55:52.000Z,11
2022-11-28T13:57:08.000Z,11
2022-11-28T13:58:24.000Z,11
2022-11-28T13:59:40.000Z,11
2022-11-28T14:00:56.000Z,11
2022-11-28T14:02:13.000Z,11
2022-11-28T14:03:29.000Z,11
2022-11-28T14:04:45.000Z,11
2022-11-28T14:06:01.720Z,11
2022-11-28T14:07:17.000Z,11
2022-11-28T14:08:33.000Z,11
2022-11-28T14:09:48.000Z,11
2022-11-28T14:11:05.000Z,11
2022-11-28T14:12:21.000Z,5
2022-11-28T14:13:37.000Z,5
2022-11-28T14:14:53.000Z,5
2022-11-28T14:16:09.000Z,5
2022-11-28T14:17:26.053Z,5
2022-11-28T14:18:41.000Z,5
2022-11-28T14:19:58.358Z,5
2022-11-28T14:21:14.000Z,5
2022-11-28T14:22:30.000Z,5
2022-11-28T14:23:46.000Z,5
2022-11-28T14:25:02.000Z,5
2022-11-28T14:26:17.000Z,5
2022-11-28T14:27:34.000Z,5
2022-11-28T14:28:50.000Z,5
2022-11-28T14:30:06.000Z,0
2022-11-28T14:31:22.000Z,0
2022-11-28T14:32:38.000Z,0
2022-11-28T14:33:54.000Z,0
2022-11-28T14:35:11.125Z,0
2022-11-28T14:36:27.000Z,0
2022-11-28T14:37:43.000Z,0
2022-11-28T14:38:59.566Z,0
2022-11-28T14:40:15.741Z,0
2022-11-28T14:41:31.000Z,0
2022-11-28T14:42:46.000Z,0
2022-11-28T14:44:02.000Z,0
2022-11-28T14:45:19.000Z,0
2022-11-28T14:46:35.476Z,0
2022-11-28T14:47:51.000Z,0
2022-11-28T14:49:07.000Z,0
2022-11-28T14:50:23.000Z,0
2022-11-28T14:51:39.000Z,0
2022-11-28T14:52:55.000Z,0
2022-11-28T14:54:12.338Z,0
2022-11-28T14:55:28.000Z,0
2022-11-28T14:56:44.636Z,0
2022-11-28T14:58:00.000Z,0
2022-11-28T14:59:15.000Z,0
2022-11-28T15:00:31.000Z,0
2022-11-28T15:01:48.000Z,0
2022-11-28T15:03:04.000Z,0
2022-11-28T15:04:20.000Z,0
2022-11-28T15:05:36.000Z,0
2022-11-28T15:06:52.000Z,0
2022-11-28T15:08:09.059Z,0
2022-11-28T15:09:24.000Z,0
2022-11-28T15:10:41.000Z,0
2022-11-28T15:11:57.000Z,0
2022-11-28T15:13:13.000Z,0
2022-11-28T15:14:29.000Z,0
2022-11-28T15:15:44.000Z,0
2022-11-28T15:17:01.016Z,0
2022-11-28T15:18:16.000Z,0
2022-11-28T15:19:33.000Z,0
2022-11-28T15:20:49.000Z,0
2022-11-28T15:22:05.000Z,0
2022-11-28T15:23:21.000Z,0
2022-11-28T15:24:37.000Z,0
2022-11-28T15:25:53.000Z,0
2022-11-28T15:27:09.000Z,0
2022-11-28T15:28:26.000Z,0
2022-11-28T15:29:42.000Z,0
2022-11-28T15:30:58.000Z,0
2022-11-28T15:32:13.000Z,0
2022-11-28T15:33:29.000Z,0
2022-11-28T15:34:45.000Z,0
2022-11-28T15:36:02.000Z,0
2022-11-28T15:37:18.000Z,0
2022-11-28T15:38:34.000Z,0
2022-11-28T15:39:49.000Z,0
2022-11-28T15:41:05.000Z,0
2022-11-28T15:42:21.000Z,0
2022-11-28T15:43:37.000Z,0
2022-11-28T15:44:54.000Z,0
2022-11-28T15:46:10.000Z,0
2022-11-28T15:47:26.000Z,0
2022-11-28T15:48:42.000Z,0
2022-11-28T15:49:58.000Z,0
2022-11-28T15:51:14.000Z,0
2022-11-28T15:52:30.000Z,0
2022-11-28T15:53:47.000Z,0
2022-11-28T15:55:03.000Z,0
2022-11-28T15:56:18.000Z,0
2022-11-28T15:57:34.000Z,0
2022-11-28T15:58:50.000Z,0
2022-11-28T16:00:06.000Z,0
2022-11-28T16:01:22.000Z,0
2022-11-28T16:02:39.000Z,0
2022-11-28T16:03:55.000Z,0
2022-11-28T16:05:11.000Z,0
2022-11-28T16:06:27.000Z,0
2022-11-28T16:07:43.000Z,0
2022-11-28T16:08:59.000Z,0
2022-11-28T16:10:16.000Z,0
2022-11-28T16:11:32.000Z,0
2022-11-28T16:12:47.000Z,0
2022-11-28T16:14:03.000Z,0
2022-11-28T16:15:19.840Z,0
2022-11-28T16:16:35.982Z,0
2022-11-28T16:17:51.000Z,0
2022-11-28T16:19:08.000Z,0
2022-11-28T16:20:24.426Z,0
2022-11-28T16:21:40.000Z,0
2022-11-28T16:22:56.721Z,0
2022-11-28T16:24:12.875Z,0
2022-11-28T16:25:29.023Z,0
2022-11-28T16:26:44.000Z,0
2022-11-28T16:28:01.310Z,0
2022-11-28T16:29:16.000Z,0
2022-11-28T16:30:32.620Z,0
2022-11-28T16:31:48.000Z,0
2022-11-28T16:33:04.912Z,0
2022-11-28T16:34:20.000Z,0
2022-11-28T16:35:36.000Z,0
2022-11-28T16:36:53.353Z,0
2022-11-28T16:38:09.000Z,0
2022-11-28T16:39:25.000Z,0
2022-11-28T16:40:41.000Z,0
2022-11-28T16:41:57.000Z,0
2022-11-28T16:43:13.000Z,0
2022-11-28T16:44:30.000Z,0
2022-11-28T16:45:45.000Z,0
2022-11-28T16:47:01.000Z,0
2022-11-28T16:48:17.000Z,0
2022-11-28T16:49:33.000Z,0
2022-11-28T16:50:49.000Z,0
2022-11-28T16:52:06.124Z,0
2022-11-28T16:53:22.000Z,0
2022-11-28T16:54:38.000Z,0
2022-11-28T16:55:54.569Z,0
2022-11-28T16:57:10.000Z,0
2022-11-28T16:58:26.000Z,0
2022-11-28T16:59:43.017Z,0
2022-11-28T17:00:58.000Z,0
2022-11-28T17:02:14.000Z,0
2022-11-28T17:03:30.000Z,0
2022-11-28T17:04:46.612Z,0
2022-11-28T17:06:02.000Z,0
2022-11-28T17:07:18.000Z,0
2022-11-28T17:08:34.833Z,0
2022-11-28T17:09:50.000Z,0
2022-11-28T17:11:07.360Z,0
2022-11-28T17:12:23.494Z,0
2022-11-28T17:13:39.000Z,0
2022-11-28T17:14:55.000Z,0
2022-11-28T17:16:11.000Z,0
2022-11-28T17:17:27.000Z,0
2022-11-28T17:18:43.266Z,0
2022-11-28T17:19:59.000Z,0
2022-11-28T17:21:15.000Z,0
2022-11-28T17:22:31.000Z,0
2022-11-28T17:23:47.000Z,0
2022-11-28T17:25:04.071Z,0
2022-11-28T17:26:19.000Z,0
2022-11-28T17:27:36.000Z,0
2022-11-28T17:28:52.000Z,0
2022-11-28T17:30:08.000Z,0
2022-11-28T17:31:24.717Z,0
2022-11-28T17:32:40.000Z,0
2022-11-28T17:33:57.028Z,0
2022-11-28T17:35:11.000Z,0
2022-11-28T17:36:28.000Z,0
2022-11-28T17:37:44.000Z,0
2022-11-28T17:39:00.000Z,0
2022-11-28T17:40:16.000Z,0
2022-11-28T17:41:32.000Z,0
2022-11-28T17:42:48.000Z,0
2022-11-28T17:44:04.000Z,0
2022-11-28T17:45:21.000Z,0
2022-11-28T17:46:37.000Z,0
2022-11-28T17:47:53.000Z,0
2022-11-28T17:49:09.000Z,0
2022-11-28T17:50:25.000Z,0
2022-11-28T17:51:40.000Z,0
2022-11-28T17:52:57.248Z,0
2022-11-28T17:54:13.000Z,0
2022-11-28T17:55:29.000Z,0
2022-11-28T17:56:45.000Z,0
2022-11-28T17:58:01.000Z,0
2022-11-28T17:59:17.000Z,0
2022-11-28T18:00:33.000Z,0
2022-11-28T18:01:50.000Z,0
2022-11-28T18:03:06.000Z,0
2022-11-28T18:04:22.000Z,0
2022-11-28T18:05:38.000Z,0
2022-11-28T18:06:54.876Z,0
2022-11-28T18:08:09.000Z,0
2022-11-28T18:09:26.181Z,0
2022-11-28T18:10:42.000Z,0
2022-11-28T18:11:58.000Z,0
2022-11-28T18:13:14.000Z,0
2022-11-28T18:14:30.000Z,0
2022-11-28T18:15:46.000Z,0
2022-11-28T18:17:02.000Z,0
2022-11-28T18:18:18.000Z,0
2022-11-28T18:19:35.355Z,0
2022-11-28T18:20:51.000Z,0
2022-11-28T18:22:07.000Z,0
2022-11-28T18:23:23.000Z,0
2022-11-28T18:24:38.000Z,0
2022-11-28T18:25:54.000Z,0
2022-11-28T18:27:11.261Z,0
2022-11-28T18:28:27.000Z,0
2022-11-28T18:29:43.000Z,0
2022-11-28T18:30:59.701Z,0